Skip Navigation Links
NOAA logo - Click to go to the NOAA homepage
NOAA's National Weather Service
Alaska Aviation Weather Unit
  NWS logo - Click to go to the NWS homepage
Left Navbar Graphic     02 AKDT = 10 GMT

   
NOAA is celebrating 200 years of science, service, and stewardship. Visit the NOAA 200th celebration Web site to learn more.
USA.gov is the U.S. Government's official Web portal to all Federal, state and local government Web resources and services.
Facebook
NWS on Facebook

AAWU Home :: Display TAF Add Bookmark
METAR PASO 270453Z AUTO 00000KT 10SM CLR M03/M07 A2958 RMK AO2 SLP018
     T10281072 TSNO=

METAR PASO 270553Z AUTO 00000KT 10SM BKN100 M03/M07 A2957 RMK AO2 SLP015
     T10331067 10006 21039 58005 TSNO=

METAR PASO 270653Z AUTO 00000KT 10SM FEW075 BKN100 M04/M07 A2956 RMK AO2
     SLP011 T10441072 TSNO=

METAR PASO 270753Z AUTO 00000KT 10SM CLR M04/M08 A2956 RMK AO2 SLP009
     T10441078 TSNO=

METAR PASO 270853Z AUTO 00000KT 10SM CLR M06/M08 A2955 RMK AO2 SLP006
     T10561083 400061056 56009 TSNO=

METAR PASO 270953Z AUTO 00000KT 10SM CLR M06/M08 A2954 RMK AO2 SLP003
     T10611083 TSNO=


NOAA's National Weather Service
Alaska Aviation Weather Unit
6930 Sand Lake Road
Anchorage, AK 99502-1845
Disclaimer
Credits
Glossary
Privacy Policy
About Us
Career Opportunities
Contact AAWU Internet Services Site last modified: April, 17th 2012